Terminal Aerodrome Forecast
Issued by NWS Sioux Falls, SD

Home | Current Version | Previous Version | Graphics & Text | Print | Product List | Glossary Off
Versions: 1 2 3 4 5 6 7 8 9 10 11 12 13 14 15 16 17 18 19 20 21 22 23 24 25 26 27 28 29 30 31 32 33 34 35 36

000
FTUS43 KFSD 262300
TAFSUX
TAF
KSUX 262335Z 2700/2724 08005KT P6SM SCT250
     FM270900 09005KT P6SM BKN050
      TEMPO 2710/2714 3SM TSRA OVC025CB
     FM271400 10005KT P6SM SCT008 BKN020
     FM272000 12007KT P6SM SCT020 BKN080=

USA.gov is the U.S. government's official web portal to all federal, state and local government web resources and services.